Time;durP1;ratioP1;P1;durP2;ratioP2;P2;SDS_P1;SDS_P2;PMS_P1;PMS_P2;Temp;Humidity;BMP_temperature;BMP_pressure;BME280_temperature;BME280_humidity;BME280_pressure;Samples;Min_cycle;Max_cycle;Signal;HPM_P1;HPM_P2
2023/08/04 00:00:24;;;;;;;2.92;0.85;;;;;;;14.61;100.00;100621.56;5042333;28;20127;-64
2023/08/04 00:02:51;;;;;;;2.75;1.00;;;;;;;14.70;100.00;100620.19;5037619;28;20421;-64
2023/08/04 00:05:18;;;;;;;5.75;1.20;;;;;;;14.77;100.00;100624.16;5040784;28;20582;-64
2023/08/04 00:07:44;;;;;;;2.45;1.00;;;;;;;14.53;100.00;100635.09;5038841;28;20060;-64
2023/08/04 00:10:11;;;;;;;2.45;1.08;;;;;;;14.52;100.00;100633.41;5030950;28;20060;-64
2023/08/04 00:12:38;;;;;;;3.25;1.13;;;;;;;14.50;100.00;100631.78;5023861;28;20049;-64
2023/08/04 00:15:08;;;;;;;5.47;1.20;;;;;;;14.36;100.00;100648.34;5041434;28;20053;-64
2023/08/04 00:17:37;;;;;;;3.88;1.20;;;;;;;14.54;100.00;100649.16;5042536;28;20080;-64
2023/08/04 00:20:10;;;;;;;4.15;1.20;;;;;;;14.36;100.00;100643.94;5033189;28;20076;-64
2023/08/04 00:22:38;;;;;;;9.50;1.60;;;;;;;14.28;100.00;100645.31;5031361;28;20136;-64
2023/08/04 00:25:05;;;;;;;4.95;1.42;;;;;;;14.26;100.00;100652.44;5035753;28;20057;-64
2023/08/04 00:27:32;;;;;;;3.08;1.00;;;;;;;14.49;100.00;100656.44;5033023;28;20468;-64
2023/08/04 00:30:00;;;;;;;2.80;1.00;;;;;;;14.39;100.00;100661.34;5018196;28;20246;-63
2023/08/04 00:32:27;;;;;;;3.05;1.20;;;;;;;14.39;100.00;100656.09;5038004;28;20386;-63
2023/08/04 00:34:54;;;;;;;4.38;1.30;;;;;;;14.47;100.00;100663.59;5047649;28;20045;-64
2023/08/04 00:37:21;;;;;;;3.85;1.20;;;;;;;14.41;100.00;100657.72;5040549;28;20045;-63
2023/08/04 00:39:47;;;;;;;3.47;1.35;;;;;;;14.57;100.00;100672.66;5032208;28;20130;-63
2023/08/04 00:42:14;;;;;;;2.53;1.02;;;;;;;14.64;100.00;100670.56;5027177;28;20057;-64
2023/08/04 00:44:41;;;;;;;1.30;0.90;;;;;;;14.65;100.00;100672.28;5030561;28;20124;-64
2023/08/04 00:47:07;;;;;;;2.65;1.00;;;;;;;14.74;100.00;100672.63;5000899;28;20061;-63
2023/08/04 00:49:34;;;;;;;4.00;0.90;;;;;;;14.72;100.00;100681.56;5042752;28;20064;-64
2023/08/04 00:52:01;;;;;;;1.85;0.98;;;;;;;14.68;100.00;100670.34;5030987;28;20061;-64
2023/08/04 00:54:28;;;;;;;3.10;0.95;;;;;;;14.71;100.00;100687.75;5039597;28;20053;-64
2023/08/04 00:56:55;;;;;;;4.60;1.00;;;;;;;14.29;100.00;100681.22;5032291;28;20053;-64
2023/08/04 00:59:22;;;;;;;4.65;1.15;;;;;;;14.32;100.00;100675.78;5049281;28;20409;-64
2023/08/04 01:01:49;;;;;;;3.45;0.95;;;;;;;14.61;100.00;100690.91;5038679;28;20053;-64
2023/08/04 01:04:19;;;;;;;1.48;0.70;;;;;;;14.29;100.00;100682.09;5044422;28;20114;-64
2023/08/04 01:07:01;;;;;;;0.93;0.70;;;;;;;14.32;100.00;100671.38;5033030;28;20139;-63
2023/08/04 01:09:51;;;;;;;1.48;0.70;;;;;;;14.42;100.00;100701.56;5043782;28;20139;-64
2023/08/04 01:12:25;;;;;;;0.88;0.77;;;;;;;14.30;100.00;100694.31;5021339;28;20055;-63
2023/08/04 01:14:53;;;;;;;1.35;0.70;;;;;;;14.09;100.00;100698.94;5040241;28;20406;-64
2023/08/04 01:17:39;;;;;;;1.38;0.65;;;;;;;14.14;100.00;100704.81;5040236;28;20057;-64
2023/08/04 01:20:06;;;;;;;1.10;0.70;;;;;;;14.12;100.00;100713.75;5036542;28;20052;-63
2023/08/04 01:22:34;;;;;;;2.67;0.70;;;;;;;14.08;100.00;100714.81;5029710;28;20056;-64
2023/08/04 01:25:02;;;;;;;1.05;0.70;;;;;;;13.91;100.00;100724.44;5015713;28;20415;-64
2023/08/04 01:27:38;;;;;;;1.55;0.73;;;;;;;13.97;100.00;100721.50;5041581;28;20049;-63
2023/08/04 01:30:10;;;;;;;2.15;0.80;;;;;;;14.07;100.00;100715.75;5043751;28;20060;-63
2023/08/04 01:32:37;;;;;;;2.17;0.70;;;;;;;13.76;100.00;100726.09;5042250;28;20122;-63
2023/08/04 01:35:08;;;;;;;1.00;0.70;;;;;;;13.96;100.00;100729.47;5036035;28;20055;-64
2023/08/04 01:37:35;;;;;;;0.80;0.70;;;;;;;13.97;100.00;100739.06;5049933;28;20053;-64
2023/08/04 01:40:02;;;;;;;0.70;0.70;;;;;;;13.81;100.00;100726.72;5048543;28;20823;-64
2023/08/04 01:42:28;;;;;;;1.33;0.75;;;;;;;13.95;100.00;100738.28;5014420;28;20049;-63
2023/08/04 01:44:55;;;;;;;2.55;0.80;;;;;;;13.80;100.00;100730.25;5029768;28;20053;-64
2023/08/04 01:47:22;;;;;;;0.98;0.77;;;;;;;13.76;100.00;100735.78;5030183;28;20050;-63
2023/08/04 01:49:48;;;;;;;2.17;0.93;;;;;;;13.85;100.00;100744.03;5044390;28;20059;-63
2023/08/04 01:52:15;;;;;;;0.80;0.73;;;;;;;13.69;100.00;100740.50;5022078;28;20053;-63
2023/08/04 01:54:42;;;;;;;0.80;0.80;;;;;;;13.63;100.00;100728.50;5037278;28;20140;-64
2023/08/04 01:57:09;;;;;;;1.38;0.80;;;;;;;13.89;100.00;100739.47;5034727;28;20124;-64
2023/08/04 01:59:35;;;;;;;1.17;0.80;;;;;;;13.73;100.00;100744.66;5021366;28;20485;-64
2023/08/04 02:02:02;;;;;;;2.40;0.80;;;;;;;13.59;100.00;100740.09;5032672;28;20053;-64
2023/08/04 02:04:29;;;;;;;1.25;0.80;;;;;;;13.60;100.00;100733.06;5043842;28;20053;-63
2023/08/04 02:06:56;;;;;;;2.50;0.90;;;;;;;13.57;100.00;100731.44;5049048;28;20048;-64
2023/08/04 02:09:23;;;;;;;2.33;1.20;;;;;;;13.52;100.00;100749.22;5035429;28;20049;-64
2023/08/04 02:11:49;;;;;;;1.30;0.70;;;;;;;13.45;100.00;100746.03;5027488;28;20053;-63
2023/08/04 02:14:16;;;;;;;1.92;0.88;;;;;;;13.46;100.00;100754.81;5047457;28;20474;-64
2023/08/04 02:16:42;;;;;;;7.22;1.00;;;;;;;13.51;100.00;100755.44;5019238;28;20095;-63
2023/08/04 02:19:09;;;;;;;4.40;1.10;;;;;;;13.23;100.00;100733.06;5025429;28;20056;-63
2023/08/04 02:21:37;;;;;;;1.25;0.75;;;;;;;13.40;100.00;100752.44;5030261;28;20056;-64
2023/08/04 02:24:04;;;;;;;1.77;1.00;;;;;;;13.19;100.00;100749.06;5043531;28;20045;-64
2023/08/04 02:26:31;;;;;;;2.88;0.93;;;;;;;13.39;100.00;100727.94;5028884;28;20049;-64
2023/08/04 02:28:57;;;;;;;2.55;1.00;;;;;;;13.51;100.00;100739.66;5029384;28;20038;-64
2023/08/04 02:31:26;;;;;;;3.28;1.13;;;;;;;13.44;100.00;100761.91;5030608;28;20065;-64
2023/08/04 02:33:53;;;;;;;3.95;1.00;;;;;;;13.20;100.00;100763.91;5033220;28;20049;-64
2023/08/04 02:36:21;;;;;;;3.08;1.00;;;;;;;13.43;100.00;100768.09;5030907;28;20059;-63
2023/08/04 02:38:47;;;;;;;3.38;1.00;;;;;;;13.11;100.00;100763.41;5052297;28;20055;-64
2023/08/04 02:41:14;;;;;;;7.10;1.48;;;;;;;13.24;100.00;100774.22;5044255;28;20045;-63
2023/08/04 02:43:41;;;;;;;5.60;1.20;;;;;;;13.07;100.00;100782.06;5048096;28;20063;-63
2023/08/04 02:46:10;;;;;;;7.78;1.52;;;;;;;12.87;100.00;100757.56;5052668;28;20379;-63
2023/08/04 02:48:37;;;;;;;6.53;1.75;;;;;;;12.89;100.00;100770.59;5036330;28;20045;-64
2023/08/04 02:51:06;;;;;;;5.80;1.60;;;;;;;12.95;100.00;100772.97;5040825;28;20069;-64
2023/08/04 02:53:34;;;;;;;6.97;1.58;;;;;;;13.22;100.00;100772.56;5046822;28;20055;-64
2023/08/04 02:56:21;;;;;;;7.93;1.50;;;;;;;13.30;100.00;100776.53;5052368;28;20111;-63
2023/08/04 02:58:48;;;;;;;6.82;1.50;;;;;;;13.27;100.00;100778.47;5038300;28;20044;-64
2023/08/04 03:01:15;;;;;;;5.78;1.45;;;;;;;13.05;100.00;100776.88;5036532;28;20053;-64
2023/08/04 03:03:42;;;;;;;9.73;1.75;;;;;;;13.16;100.00;100779.00;5045019;28;20055;-64
2023/08/04 03:06:09;;;;;;;8.10;1.52;;;;;;;13.07;100.00;100769.75;5052151;28;20052;-64
2023/08/04 03:08:36;;;;;;;9.80;1.95;;;;;;;12.90;100.00;100791.56;5045153;28;20046;-63
2023/08/04 03:11:08;;;;;;;7.82;1.88;;;;;;;12.72;100.00;100777.50;5027346;28;20056;-63
2023/08/04 03:13:35;;;;;;;7.03;1.52;;;;;;;12.90;100.00;100767.91;5027046;28;20411;-64
2023/08/04 03:16:01;;;;;;;9.60;1.67;;;;;;;12.71;100.00;100773.19;5017578;28;20084;-63
2023/08/04 03:18:28;;;;;;;8.93;1.70;;;;;;;13.02;100.00;100769.13;5039655;28;20426;-63
2023/08/04 03:20:55;;;;;;;8.90;1.88;;;;;;;12.77;100.00;100755.44;5042035;28;20400;-63
2023/08/04 03:23:22;;;;;;;9.75;1.90;;;;;;;12.75;100.00;100768.66;5052660;28;20053;-64
2023/08/04 03:25:49;;;;;;;9.73;2.28;;;;;;;12.81;100.00;100770.13;5022098;28;20099;-64
2023/08/04 03:28:16;;;;;;;8.48;1.88;;;;;;;12.81;100.00;100781.47;5025046;28;20052;-63
2023/08/04 03:30:43;;;;;;;8.93;2.00;;;;;;;12.92;100.00;100767.84;5045728;28;20694;-63
2023/08/04 03:33:09;;;;;;;6.72;1.70;;;;;;;12.62;100.00;100775.38;5035111;28;20060;-63
2023/08/04 03:35:36;;;;;;;6.40;1.63;;;;;;;13.08;100.00;100775.84;5038015;28;20491;-64
2023/08/04 03:38:04;;;;;;;9.27;1.90;;;;;;;13.00;100.00;100759.63;5042122;28;20132;-63
2023/08/04 03:40:30;;;;;;;10.50;1.80;;;;;;;13.05;100.00;100779.50;5049455;28;20051;-64
2023/08/04 03:42:57;;;;;;;8.45;1.52;;;;;;;12.96;100.00;100779.06;5044024;28;20084;-64
2023/08/04 03:45:24;;;;;;;9.15;1.50;;;;;;;12.98;100.00;100783.34;5036697;28;20049;-64
2023/08/04 03:47:51;;;;;;;8.65;1.70;;;;;;;13.05;100.00;100782.13;5047714;28;20574;-63
2023/08/04 03:50:18;;;;;;;4.50;1.33;;;;;;;13.08;100.00;100786.38;5050019;28;20512;-63
2023/08/04 03:52:45;;;;;;;8.75;1.98;;;;;;;12.93;100.00;100795.84;5026260;28;20055;-64
2023/08/04 03:55:11;;;;;;;8.52;2.05;;;;;;;12.76;100.00;100787.88;5037109;28;20303;-64
2023/08/04 03:57:38;;;;;;;8.40;2.03;;;;;;;12.72;100.00;100781.91;5045499;28;20495;-64
2023/08/04 04:00:06;;;;;;;6.55;1.80;;;;;;;12.80;100.00;100789.44;5042815;28;20049;-64
2023/08/04 04:02:33;;;;;;;10.32;1.90;;;;;;;12.79;100.00;100787.75;5022689;28;20414;-63
2023/08/04 04:05:00;;;;;;;7.63;1.55;;;;;;;12.65;100.00;100775.25;5039995;28;20089;-63
2023/08/04 04:07:26;;;;;;;8.85;2.03;;;;;;;12.67;100.00;100795.25;5033148;28;20053;-63
2023/08/04 04:09:53;;;;;;;7.65;1.92;;;;;;;12.68;100.00;100791.72;5024638;28;20052;-64
2023/08/04 04:12:19;;;;;;;7.38;1.98;;;;;;;12.54;100.00;100770.47;5015764;28;20053;-64
2023/08/04 04:14:46;;;;;;;9.20;1.90;;;;;;;12.51;100.00;100787.22;5030279;28;20045;-63
2023/08/04 04:17:13;;;;;;;10.43;2.22;;;;;;;12.56;100.00;100783.53;5034763;28;20061;-64
2023/08/04 04:19:40;;;;;;;9.00;1.63;;;;;;;12.48;100.00;100789.13;5042059;28;20554;-64
2023/08/04 04:22:09;;;;;;;7.95;2.00;;;;;;;12.84;100.00;100802.38;5029401;28;20071;-64
2023/08/04 04:24:36;;;;;;;5.60;1.48;;;;;;;12.79;100.00;100799.09;5050949;28;20049;-64
2023/08/04 04:27:03;;;;;;;6.15;1.75;;;;;;;12.83;100.00;100797.19;5051123;28;20140;-64
2023/08/04 04:29:30;;;;;;;8.23;1.90;;;;;;;12.67;100.00;100789.16;5032685;28;20041;-64
2023/08/04 04:31:57;;;;;;;9.48;1.98;;;;;;;12.72;100.00;100801.16;5039595;28;20411;-63
2023/08/04 04:34:24;;;;;;;9.25;1.85;;;;;;;12.76;100.00;100803.66;5037951;28;20064;-64
2023/08/04 04:36:51;;;;;;;8.80;2.10;;;;;;;12.38;100.00;100804.44;5030095;28;20053;-63
2023/08/04 04:39:18;;;;;;;10.27;2.45;;;;;;;12.46;100.00;100794.44;5049205;28;20076;-64
2023/08/04 04:41:45;;;;;;;9.02;1.98;;;;;;;12.56;100.00;100801.94;5036009;28;20040;-64
2023/08/04 04:44:12;;;;;;;5.97;1.80;;;;;;;12.52;100.00;100796.81;5041140;28;20467;-63
2023/08/04 04:46:39;;;;;;;5.82;1.50;;;;;;;12.65;100.00;100801.50;5044096;28;20061;-63
2023/08/04 04:49:06;;;;;;;9.18;2.65;;;;;;;12.44;100.00;100796.28;5048348;28;20049;-63
2023/08/04 04:51:32;;;;;;;10.18;1.85;;;;;;;12.67;100.00;100818.03;5030327;28;20045;-64
2023/08/04 04:53:59;;;;;;;7.88;1.88;;;;;;;12.57;100.00;100820.25;5037106;28;20053;-63
2023/08/04 04:56:26;;;;;;;10.68;1.60;;;;;;;12.58;100.00;100816.69;5037241;28;20052;-63
2023/08/04 04:58:53;;;;;;;8.63;1.80;;;;;;;12.68;100.00;100815.34;5044802;28;20045;-64
2023/08/04 05:01:19;;;;;;;8.25;1.80;;;;;;;12.67;100.00;100821.53;5024724;28;20079;-64
2023/08/04 05:03:46;;;;;;;10.52;1.80;;;;;;;12.81;100.00;100817.44;5032453;28;20427;-64
2023/08/04 05:06:13;;;;;;;9.18;1.85;;;;;;;12.86;100.00;100824.16;5038552;28;20457;-63
2023/08/04 05:08:40;;;;;;;5.72;1.50;;;;;;;12.93;100.00;100831.78;5036085;28;20049;-64
2023/08/04 05:11:06;;;;;;;5.72;1.75;;;;;;;12.80;100.00;100823.59;5037849;28;20064;-64
2023/08/04 05:13:33;;;;;;;5.82;1.45;;;;;;;12.86;100.00;100833.84;5036211;28;20084;-64
2023/08/04 05:16:00;;;;;;;6.93;1.70;;;;;;;13.01;100.00;100840.16;5034371;28;20049;-64
2023/08/04 05:18:27;;;;;;;7.10;1.70;;;;;;;13.02;100.00;100855.00;5042094;28;20514;-64
2023/08/04 05:20:55;;;;;;;6.13;1.85;;;;;;;13.02;100.00;100849.75;5048824;28;20479;-63
2023/08/04 05:23:22;;;;;;;7.65;1.65;;;;;;;12.89;100.00;100854.69;5050164;28;20094;-63
2023/08/04 05:25:49;;;;;;;6.15;1.58;;;;;;;12.80;100.00;100845.47;5035522;28;20056;-64
2023/08/04 05:28:19;;;;;;;4.72;1.30;;;;;;;12.93;100.00;100858.06;5049205;28;20781;-64
2023/08/04 05:30:46;;;;;;;4.47;1.63;;;;;;;12.87;100.00;100857.41;5044166;28;20057;-64
2023/08/04 05:33:13;;;;;;;9.52;1.70;;;;;;;12.72;100.00;100851.06;5031889;28;20060;-64
2023/08/04 05:35:44;;;;;;;6.32;1.30;;;;;;;12.51;100.00;100855.50;5036686;28;20084;-69
2023/08/04 05:38:12;;;;;;;3.58;1.17;;;;;;;12.53;100.00;100853.66;5023659;28;20061;-64
2023/08/04 05:40:41;;;;;;;4.75;1.00;;;;;;;12.31;100.00;100852.91;5039712;28;20402;-64
2023/08/04 05:43:08;;;;;;;3.40;0.98;;;;;;;12.57;100.00;100857.03;5024814;28;20049;-64
2023/08/04 05:45:36;;;;;;;4.05;0.88;;;;;;;12.42;100.00;100849.81;5029880;28;20411;-64
2023/08/04 05:48:04;;;;;;;3.97;0.98;;;;;;;12.27;100.00;100848.66;5043393;28;20088;-64
2023/08/04 05:50:31;;;;;;;3.03;1.00;;;;;;;12.48;100.00;100857.41;5029336;28;20542;-64
2023/08/04 05:52:58;;;;;;;2.47;1.00;;;;;;;12.52;100.00;100865.09;5033816;28;20135;-64
2023/08/04 05:55:25;;;;;;;2.55;0.98;;;;;;;12.37;100.00;100851.78;5031363;28;20451;-64
2023/08/04 05:57:52;;;;;;;6.22;1.58;;;;;;;12.59;100.00;100867.44;5032077;28;20057;-64
2023/08/04 06:00:19;;;;;;;3.40;1.00;;;;;;;12.65;100.00;100873.28;5038319;28;20514;-64
2023/08/04 06:02:45;;;;;;;2.40;0.98;;;;;;;12.69;100.00;100879.25;5030023;28;20403;-64
2023/08/04 06:05:12;;;;;;;2.85;1.00;;;;;;;12.96;100.00;100885.06;5033934;28;20050;-64
2023/08/04 06:07:40;;;;;;;3.30;1.10;;;;;;;12.75;100.00;100881.63;5029345;28;20072;-64
2023/08/04 06:10:07;;;;;;;3.75;1.10;;;;;;;12.99;100.00;100887.53;5027729;28;20049;-64
2023/08/04 06:12:35;;;;;;;3.47;1.10;;;;;;;12.96;100.00;100885.06;5023249;28;20138;-64
2023/08/04 06:15:03;;;;;;;4.18;1.17;;;;;;;13.04;100.00;100885.56;5032854;28;20050;-64
2023/08/04 06:17:30;;;;;;;4.75;1.30;;;;;;;13.57;100.00;100870.00;5032714;28;20045;-64
2023/08/04 06:19:57;;;;;;;4.43;1.20;;;;;;;14.38;100.00;100888.84;5035047;28;20535;-64
2023/08/04 06:22:24;;;;;;;3.65;1.10;;;;;;;13.96;100.00;100892.69;5012885;28;20164;-64
2023/08/04 06:24:51;;;;;;;4.03;1.17;;;;;;;13.91;100.00;100892.06;5033200;28;20491;-65
2023/08/04 06:27:17;;;;;;;6.07;1.10;;;;;;;14.49;100.00;100891.75;5032140;28;20038;-65
2023/08/04 06:29:44;;;;;;;4.15;1.15;;;;;;;14.46;100.00;100885.78;5036878;28;20067;-64
2023/08/04 06:32:11;;;;;;;3.85;1.02;;;;;;;14.17;100.00;100891.63;5032496;28;20468;-64
2023/08/04 06:34:37;;;;;;;5.45;1.33;;;;;;;14.95;100.00;100896.44;5014702;28;20053;-64
2023/08/04 06:37:04;;;;;;;2.45;0.90;;;;;;;14.91;100.00;100905.44;5040235;28;20522;-65
2023/08/04 06:39:31;;;;;;;4.63;1.00;;;;;;;14.80;100.00;100909.50;5047571;28;20052;-64
2023/08/04 06:41:57;;;;;;;3.95;1.13;;;;;;;14.66;100.00;100912.00;5023539;28;20045;-65
2023/08/04 06:44:24;;;;;;;5.55;1.23;;;;;;;14.55;100.00;100919.56;5033010;28;20488;-64
2023/08/04 06:46:51;;;;;;;4.00;1.10;;;;;;;14.18;100.00;100916.16;5032365;28;20411;-65
2023/08/04 06:49:17;;;;;;;5.60;1.02;;;;;;;14.34;100.00;100918.88;5032167;28;20050;-64
2023/08/04 06:51:44;;;;;;;2.22;1.10;;;;;;;14.11;100.00;100926.16;5031967;28;20068;-65
2023/08/04 06:54:11;;;;;;;4.82;0.95;;;;;;;14.00;100.00;100934.56;5032469;28;20124;-64
2023/08/04 06:56:38;;;;;;;5.10;1.10;;;;;;;13.92;100.00;100928.00;5032711;28;20479;-64
2023/08/04 06:59:05;;;;;;;5.38;1.20;;;;;;;13.83;100.00;100918.75;5037886;28;20045;-64
2023/08/04 07:01:31;;;;;;;6.80;1.52;;;;;;;13.95;100.00;100915.53;5029879;28;20041;-64
2023/08/04 07:03:58;;;;;;;6.10;1.33;;;;;;;14.10;100.00;100927.06;5030102;28;20049;-64
2023/08/04 07:06:25;;;;;;;5.00;1.00;;;;;;;14.44;100.00;100920.13;5030961;28;20495;-65
2023/08/04 07:08:51;;;;;;;4.40;1.17;;;;;;;14.12;100.00;100924.38;5029954;28;20042;-64
2023/08/04 07:11:18;;;;;;;6.25;1.35;;;;;;;14.19;100.00;100925.78;5030803;28;20064;-64
2023/08/04 07:13:45;;;;;;;4.00;1.10;;;;;;;13.96;100.00;100945.34;5030893;28;20454;-64
2023/08/04 07:16:12;;;;;;;6.22;1.40;;;;;;;14.18;100.00;100932.81;5011540;28;20491;-64
2023/08/04 07:18:39;;;;;;;4.05;1.25;;;;;;;14.25;100.00;100925.44;5021014;28;20041;-64
2023/08/04 07:21:10;;;;;;;5.32;1.30;;;;;;;14.25;100.00;100943.88;5018464;28;20053;-64
2023/08/04 07:23:38;;;;;;;7.13;1.40;;;;;;;14.09;100.00;100951.69;5027717;28;20424;-64
2023/08/04 07:26:05;;;;;;;3.20;1.00;;;;;;;14.13;100.00;100931.31;5009626;28;20068;-64
2023/08/04 07:28:33;;;;;;;5.85;1.20;;;;;;;14.76;100.00;100942.22;5016195;28;20038;-64
2023/08/04 07:31:04;;;;;;;4.57;1.05;;;;;;;15.47;100.00;100938.44;5011806;28;20064;-64
2023/08/04 07:33:31;;;;;;;5.28;1.33;;;;;;;15.67;100.00;100941.75;5021378;28;20045;-65
2023/08/04 07:35:59;;;;;;;5.80;1.20;;;;;;;15.60;100.00;100959.75;5030228;28;20059;-67
2023/08/04 07:38:27;;;;;;;3.70;1.00;;;;;;;15.39;100.00;100964.41;5037859;28;20120;-67
2023/08/04 07:40:55;;;;;;;4.28;1.10;;;;;;;15.91;100.00;100955.41;5026266;28;20050;-66
2023/08/04 07:43:22;;;;;;;3.30;1.08;;;;;;;16.18;100.00;100953.00;5031029;28;20079;-67
2023/08/04 07:45:48;;;;;;;3.75;1.30;;;;;;;15.94;100.00;100953.47;5030845;28;20053;-66
2023/08/04 07:48:15;;;;;;;6.95;1.30;;;;;;;15.93;100.00;100957.03;5030816;28;20053;-67
2023/08/04 07:50:46;;;;;;;4.68;1.20;;;;;;;15.66;100.00;100950.63;5026971;28;20049;-67
2023/08/04 07:53:12;;;;;;;6.22;1.40;;;;;;;15.42;100.00;100952.81;5030734;28;20387;-66
2023/08/04 07:55:39;;;;;;;5.78;1.45;;;;;;;15.72;100.00;100959.06;5028301;28;20443;-66
2023/08/04 07:58:07;;;;;;;7.47;1.98;;;;;;;15.58;100.00;100958.97;5022914;28;20053;-66
2023/08/04 08:00:34;;;;;;;4.10;1.23;;;;;;;15.67;100.00;100968.16;5027903;28;20124;-65
2023/08/04 08:03:00;;;;;;;6.60;1.40;;;;;;;15.68;100.00;100968.09;5033278;28;20123;-65
2023/08/04 08:05:28;;;;;;;8.07;1.52;;;;;;;15.73;100.00;100975.75;5028663;28;20050;-67
2023/08/04 08:07:54;;;;;;;7.00;1.20;;;;;;;15.34;100.00;100972.56;5005068;28;20057;-65
2023/08/04 08:10:21;;;;;;;5.20;1.40;;;;;;;15.33;100.00;100968.25;5032814;28;20045;-65
2023/08/04 08:12:50;;;;;;;6.22;1.42;;;;;;;15.40;100.00;100979.28;5017778;28;20057;-64
2023/08/04 08:15:17;;;;;;;5.57;1.52;;;;;;;15.13;100.00;100977.19;5010848;28;20083;-64
2023/08/04 08:17:44;;;;;;;6.07;1.33;;;;;;;15.49;100.00;100970.03;5036431;28;20055;-64
2023/08/04 08:20:11;;;;;;;3.85;1.05;;;;;;;15.33;100.00;100984.06;5030372;28;20049;-65
2023/08/04 08:22:37;;;;;;;7.43;1.40;;;;;;;15.53;100.00;100985.63;5029642;28;20052;-65
2023/08/04 08:25:05;;;;;;;6.55;1.40;;;;;;;15.15;100.00;100980.59;5029749;28;20057;-64
2023/08/04 08:27:31;;;;;;;6.85;1.73;;;;;;;15.42;100.00;100982.69;5020473;28;20069;-64
2023/08/04 08:29:58;;;;;;;3.63;1.23;;;;;;;15.32;100.00;100968.31;5024482;28;20049;-64
2023/08/04 08:32:24;;;;;;;5.55;1.58;;;;;;;15.34;100.00;100982.28;5028848;28;20558;-65
2023/08/04 08:34:51;;;;;;;5.35;1.40;;;;;;;15.70;100.00;100978.56;5028733;28;20215;-64
2023/08/04 08:37:18;;;;;;;7.63;2.15;;;;;;;15.78;100.00;100991.38;5037930;28;20399;-64
2023/08/04 08:39:44;;;;;;;8.60;1.65;;;;;;;15.43;100.00;100991.47;5044888;28;20049;-65
2023/08/04 08:42:11;;;;;;;4.70;1.30;;;;;;;15.32;100.00;100990.25;5029290;28;20053;-64
2023/08/04 08:44:38;;;;;;;5.72;1.52;;;;;;;15.67;100.00;100991.91;5029788;28;20146;-65
2023/08/04 08:47:05;;;;;;;5.95;1.65;;;;;;;15.61;100.00;100979.91;5034103;28;20052;-65
2023/08/04 08:49:44;;;;;;;7.18;1.73;;;;;;;15.92;100.00;100989.66;5035410;28;20395;-64
2023/08/04 08:52:11;;;;;;;7.97;1.92;;;;;;;16.28;100.00;100966.53;5021531;28;20088;-64
2023/08/04 08:54:38;;;;;;;4.57;1.50;;;;;;;16.76;100.00;100984.88;5017038;28;20128;-66
2023/08/04 08:57:06;;;;;;;6.68;1.58;;;;;;;16.56;100.00;100988.72;5032498;28;20044;-66
2023/08/04 08:59:33;;;;;;;6.53;1.67;;;;;;;16.46;100.00;100988.38;5033720;28;20533;-65
2023/08/04 09:02:03;;;;;;;7.13;1.60;;;;;;;16.66;100.00;100985.44;5026917;28;20205;-65
2023/08/04 09:04:33;;;;;;;7.85;1.50;;;;;;;17.43;100.00;100988.72;5026312;28;20042;-65
2023/08/04 09:07:00;;;;;;;7.50;1.80;;;;;;;17.53;100.00;100982.84;5031975;28;20061;-65
2023/08/04 09:09:27;;;;;;;8.02;2.20;;;;;;;17.72;100.00;100958.72;5028725;28;20087;-66
2023/08/04 09:11:56;;;;;;;8.25;2.05;;;;;;;17.19;100.00;100992.88;5023606;28;20295;-64
2023/08/04 09:14:23;;;;;;;7.32;1.70;;;;;;;16.72;100.00;101004.53;5028067;28;20052;-65
2023/08/04 09:16:49;;;;;;;5.93;1.60;;;;;;;16.28;100.00;100999.06;5028528;28;20071;-65
2023/08/04 09:19:16;;;;;;;5.88;1.70;;;;;;;16.63;100.00;101017.34;5025531;28;20046;-64
2023/08/04 09:21:43;;;;;;;4.80;1.40;;;;;;;16.66;100.00;101005.72;5008996;28;20052;-64
2023/08/04 09:24:11;;;;;;;5.93;1.75;;;;;;;16.76;100.00;101000.75;5027087;28;20049;-65
2023/08/04 09:26:50;;;;;;;7.93;2.00;;;;;;;16.30;100.00;101022.78;5025436;28;20446;-65
2023/08/04 09:29:20;;;;;;;5.35;1.35;;;;;;;16.31;100.00;101014.75;5025234;28;20046;-65
2023/08/04 09:31:48;;;;;;;5.70;1.55;;;;;;;16.73;100.00;101001.75;5001250;28;20049;-63
2023/08/04 09:34:15;;;;;;;8.00;1.63;;;;;;;16.76;100.00;101004.22;5023545;28;20053;-65
2023/08/04 09:36:47;;;;;;;5.28;1.27;;;;;;;16.94;100.00;101007.59;5027076;28;20052;-64
2023/08/04 09:39:14;;;;;;;7.75;1.60;;;;;;;16.70;100.00;100999.31;5024997;28;20050;-65
2023/08/04 09:41:43;;;;;;;7.85;1.50;;;;;;;16.33;100.00;101027.88;5024226;28;20146;-65
2023/08/04 09:44:10;;;;;;;7.25;2.00;;;;;;;16.17;100.00;101025.28;5014602;28;20060;-64
2023/08/04 09:46:49;;;;;;;5.55;1.70;;;;;;;16.06;100.00;101027.63;5032259;28;20061;-64
2023/08/04 09:49:16;;;;;;;8.15;2.17;;;;;;;16.01;100.00;101021.78;5030627;28;20952;-64
2023/08/04 09:51:43;;;;;;;8.10;1.70;;;;;;;15.73;100.00;101013.56;5029844;28;20152;-64
2023/08/04 09:54:10;;;;;;;6.47;1.95;;;;;;;15.70;100.00;101000.53;5033548;28;20053;-64
2023/08/04 09:56:37;;;;;;;8.32;1.85;;;;;;;16.08;100.00;101021.34;5033117;28;20052;-65
2023/08/04 09:59:04;;;;;;;7.75;2.13;;;;;;;16.06;100.00;101022.34;5005216;28;20053;-65
2023/08/04 10:01:31;;;;;;;7.18;2.22;;;;;;;15.67;100.00;101016.53;5032279;28;20543;-66
2023/08/04 10:03:58;;;;;;;7.78;2.35;;;;;;;15.90;100.00;101023.22;5033736;28;20045;-65
2023/08/04 10:06:25;;;;;;;10.27;2.20;;;;;;;16.04;100.00;101018.97;5034092;28;20056;-66
2023/08/04 10:08:55;;;;;;;6.75;1.85;;;;;;;15.67;100.00;101016.53;5032437;28;20052;-65
2023/08/04 10:11:23;;;;;;;12.48;2.72;;;;;;;15.85;100.00;101033.19;5026724;28;20061;-65
2023/08/04 10:13:53;;;;;;;8.15;2.45;;;;;;;15.90;100.00;101027.63;5031798;28;20072;-65
2023/08/04 10:16:25;;;;;;;8.73;1.75;;;;;;;16.21;100.00;101024.16;5031945;28;20076;-65
2023/08/04 10:19:04;;;;;;;6.95;2.13;;;;;;;15.98;100.00;101025.44;5032536;28;20103;-65
2023/08/04 10:21:37;;;;;;;10.38;2.30;;;;;;;16.20;100.00;101026.88;5024336;28;20053;-67
2023/08/04 10:24:08;;;;;;;7.78;2.15;;;;;;;16.01;100.00;101041.13;5031182;28;20049;-68
2023/08/04 10:26:48;;;;;;;10.10;2.63;;;;;;;16.05;100.00;101036.53;5033469;28;20136;-66
2023/08/04 10:29:16;;;;;;;14.43;2.72;;;;;;;15.56;100.00;101032.97;5035084;28;20056;-69
2023/08/04 10:31:46;;;;;;;7.97;2.55;;;;;;;15.61;100.00;101045.06;5033803;28;20132;-66
2023/08/04 10:34:22;;;;;;;6.45;2.03;;;;;;;15.88;100.00;101040.94;5036336;28;20144;-65
2023/08/04 10:36:59;;;;;;;7.40;1.88;;;;;;;16.18;100.00;101042.81;5028472;28;20049;-66
2023/08/04 10:39:28;;;;;;;9.38;2.53;;;;;;;16.23;100.00;101042.56;5048356;28;20091;-66
2023/08/04 10:41:58;;;;;;;8.15;2.22;;;;;;;16.26;100.00;101034.47;5039533;28;20456;-66
2023/08/04 10:44:46;;;;;;;9.30;2.22;;;;;;;16.49;100.00;101049.00;5012696;28;20494;-65
2023/08/04 10:47:13;;;;;;;6.68;2.13;;;;;;;16.26;100.00;101045.88;5027803;28;20107;-66
2023/08/04 10:49:41;;;;;;;6.85;2.03;;;;;;;16.57;100.00;101045.91;5010725;28;20073;-66
2023/08/04 10:52:08;;;;;;;10.25;2.70;;;;;;;16.80;100.00;101042.78;5015172;28;20049;-66
2023/08/04 10:54:34;;;;;;;6.28;1.98;;;;;;;16.74;100.00;101045.78;5031012;28;20597;-66
2023/08/04 10:57:01;;;;;;;6.93;2.03;;;;;;;17.08;100.00;101039.38;5032015;28;20532;-66
2023/08/04 10:59:29;;;;;;;6.88;2.13;;;;;;;17.35;100.00;101036.00;5038958;28;20044;-66
2023/08/04 11:01:56;;;;;;;8.07;2.17;;;;;;;17.41;100.00;101051.50;5027596;28;20053;-66
2023/08/04 11:04:22;;;;;;;9.70;2.30;;;;;;;17.18;100.00;101058.19;5031598;28;20144;-66
2023/08/04 11:06:50;;;;;;;7.63;2.00;;;;;;;17.33;100.00;101055.56;5039297;28;20064;-66
2023/08/04 11:09:17;;;;;;;6.50;1.85;;;;;;;17.21;100.00;101065.97;5025664;28;20050;-66
2023/08/04 11:11:44;;;;;;;10.45;2.35;;;;;;;17.14;100.00;101059.34;5031602;28;20049;-66
2023/08/04 11:14:11;;;;;;;7.53;2.55;;;;;;;17.06;100.00;101061.56;5030656;28;20057;-66
2023/08/04 11:16:38;;;;;;;7.20;2.00;;;;;;;17.31;100.00;101060.09;5013211;28;20618;-66
2023/08/04 11:19:08;;;;;;;8.57;2.05;;;;;;;17.31;100.00;101055.66;5031206;28;20053;-64